createdAt,value
2024-03-06T00:00:41.392Z,101524.83
2024-03-06T00:05:47.067Z,101532.11
2024-03-06T00:10:52.741Z,101528.78
2024-03-06T00:15:58.611Z,101541.69
2024-03-06T00:21:04.368Z,101544.28
2024-03-06T00:26:11.566Z,101550.78
2024-03-06T00:31:17.341Z,101558.63
2024-03-06T00:36:24.041Z,101563.02
2024-03-06T00:41:29.702Z,101565.22
2024-03-06T00:46:36.023Z,101577.19
2024-03-06T00:51:45.299Z,101578.59
2024-03-06T00:56:49.153Z,101583.58
2024-03-06T01:01:56.495Z,101583.31
2024-03-06T01:07:02.246Z,101592.79
2024-03-06T01:12:08.009Z,101594.75
2024-03-06T01:17:13.924Z,101600.95
2024-03-06T01:22:19.640Z,101607.19
2024-03-06T01:27:25.273Z,101610.77
2024-03-06T01:32:31.516Z,101591.81
2024-03-06T01:37:37.432Z,101602.27
2024-03-06T01:42:43.145Z,101618.36
2024-03-06T01:47:48.997Z,101632.59
2024-03-06T01:52:54.907Z,101632.59
2024-03-06T01:58:00.743Z,101636.03
2024-03-06T02:03:06.520Z,101637.23
2024-03-06T02:08:12.615Z,101641.58
2024-03-06T02:13:19.564Z,101639.75
2024-03-06T02:18:25.387Z,101644.06
2024-03-06T02:23:31.332Z,101643.52
2024-03-06T02:28:37.242Z,101644.28
2024-03-06T02:33:43.090Z,101639.05
2024-03-06T02:38:49.878Z,101638.95
2024-03-06T02:43:55.682Z,101648.84
2024-03-06T02:49:01.612Z,101642.59
2024-03-06T02:54:07.505Z,101649.61
2024-03-06T02:59:13.390Z,101643.46
2024-03-06T03:04:19.022Z,101650.06
2024-03-06T03:09:24.578Z,101649.64
2024-03-06T03:14:30.401Z,101659.88
2024-03-06T03:19:36.339Z,101654.53
2024-03-06T03:24:46.383Z,101657.66
2024-03-06T03:29:51.982Z,101659.53
2024-03-06T03:34:57.661Z,101666.77
2024-03-06T03:40:04.378Z,101667.07
2024-03-06T03:45:10.857Z,101666.46
2024-03-06T03:50:16.744Z,101670.19
2024-03-06T03:55:22.342Z,101675.15
2024-03-06T04:00:28.033Z,101679.42
2024-03-06T04:05:33.609Z,101686.94
2024-03-06T04:10:41.045Z,101686.94
2024-03-06T04:15:46.732Z,101690.09
2024-03-06T04:20:52.344Z,101698.45
2024-03-06T04:25:58.095Z,101700.00
2024-03-06T04:31:04.169Z,101698.14
2024-03-06T04:36:10.554Z,101708.70
2024-03-06T04:41:16.356Z,101709.00
2024-03-06T04:46:22.083Z,101720.20
2024-03-06T04:51:27.662Z,101734.43
2024-03-06T04:56:33.232Z,101727.08
2024-03-06T05:01:38.936Z,101725.02
2024-03-06T06:00:46.035Z,101794.70
2024-03-06T06:05:51.785Z,101797.16
2024-03-06T06:10:57.629Z,101792.56
2024-03-06T06:16:05.017Z,101806.44
2024-03-06T06:21:10.792Z,101809.30
2024-03-06T06:26:17.095Z,101805.09
2024-03-06T06:31:22.743Z,101803.94
2024-03-06T06:36:28.914Z,101808.60
2024-03-06T06:41:34.662Z,101820.95
2024-03-06T06:46:42.084Z,101841.65
2024-03-06T06:51:48.057Z,101830.55
2024-03-06T06:56:55.372Z,101831.58
2024-03-06T07:02:01.152Z,101841.73
2024-03-06T07:07:06.924Z,101839.72
2024-03-06T07:12:12.601Z,101840.64
2024-03-06T07:17:18.266Z,101852.22
2024-03-06T07:22:24.113Z,101855.50
2024-03-06T07:27:29.790Z,101856.88
2024-03-06T07:32:35.507Z,101861.09
2024-03-06T07:37:41.325Z,101864.73
2024-03-06T07:42:47.020Z,101873.70
2024-03-06T07:47:52.853Z,101868.32
2024-03-06T07:52:58.598Z,101868.81
2024-03-06T07:58:04.427Z,101870.95
2024-03-06T08:03:10.080Z,101866.97
2024-03-06T08:08:15.777Z,101862.06
2024-03-06T08:13:21.627Z,101878.39
2024-03-06T08:18:28.595Z,101894.63
2024-03-06T08:23:34.897Z,101899.51
2024-03-06T08:28:40.849Z,101897.91
2024-03-06T08:33:46.744Z,101903.58
2024-03-06T08:38:52.913Z,101905.44
2024-03-06T08:43:58.641Z,101900.42
2024-03-06T08:49:07.181Z,101908.41
2024-03-06T08:54:14.685Z,101908.91
2024-03-06T08:59:19.394Z,101911.56
2024-03-06T09:04:25.352Z,101915.98
2024-03-06T09:09:30.905Z,101915.48
2024-03-06T09:14:37.429Z,101928.08
2024-03-06T09:24:51.387Z,101937.14
2024-03-06T09:29:57.768Z,101936.33
2024-03-06T09:35:04.485Z,101939.75
2024-03-06T09:40:12.173Z,101939.34
2024-03-06T09:45:18.606Z,101944.17
2024-03-06T09:50:28.590Z,101944.70
2024-03-06T09:55:36.839Z,101954.32
2024-03-06T10:00:42.695Z,101969.17
2024-03-06T10:05:48.357Z,101962.41
2024-03-06T10:10:54.847Z,101959.52
2024-03-06T10:16:04.484Z,101960.07
2024-03-06T10:21:10.614Z,101961.20
2024-03-06T10:26:16.441Z,101978.45
2024-03-06T10:31:32.604Z,101981.70
2024-03-06T10:36:38.577Z,101970.91
2024-03-06T10:41:46.070Z,101982.66
2024-03-06T10:47:02.975Z,101974.16
2024-03-06T10:52:09.123Z,101980.55
2024-03-06T10:57:16.234Z,101976.53
2024-03-06T11:02:23.288Z,101975.61
2024-03-06T11:07:29.157Z,101976.81
2024-03-06T11:12:41.448Z,101975.14
2024-03-06T11:17:47.321Z,101971.55
2024-03-06T11:23:03.742Z,101984.84
2024-03-06T11:28:10.776Z,101987.78
2024-03-06T11:33:18.438Z,101983.09
2024-03-06T11:38:25.910Z,101985.19
2024-03-06T11:43:32.498Z,101975.89
2024-03-06T11:48:42.147Z,101969.93
2024-03-06T11:53:48.845Z,101967.11
2024-03-06T11:58:54.773Z,101969.52
2024-03-06T12:04:03.339Z,101987.50
2024-03-06T12:09:09.432Z,101983.56
2024-03-06T12:14:23.351Z,101977.72
2024-03-06T12:19:29.752Z,101975.31
2024-03-06T12:24:35.536Z,101955.35
2024-03-06T12:29:42.830Z,101952.84
2024-03-06T12:35:01.831Z,101973.63
2024-03-06T12:40:10.755Z,101956.63
2024-03-06T12:45:16.762Z,101966.17
2024-03-06T12:50:22.469Z,101967.78
2024-03-06T12:55:28.901Z,101967.56
2024-03-06T13:00:34.674Z,101958.57
2024-03-06T13:05:40.395Z,101964.46
2024-03-06T13:10:46.409Z,101956.70
2024-03-06T13:15:55.665Z,101967.69
2024-03-06T13:21:02.101Z,101968.30
2024-03-06T13:26:07.764Z,101964.95
2024-03-06T13:31:13.253Z,101969.20
2024-03-06T13:36:19.081Z,101957.61
2024-03-06T13:41:27.691Z,101973.25
2024-03-06T13:46:32.635Z,101966.02
2024-03-06T13:51:38.628Z,101966.06
2024-03-06T13:56:45.147Z,101964.98
2024-03-06T14:01:50.870Z,101973.64
2024-03-06T14:06:58.387Z,101962.56
2024-03-06T14:12:04.805Z,101955.11
2024-03-06T14:17:10.750Z,101958.95
2024-03-06T14:22:18.086Z,101953.53
2024-03-06T14:27:23.957Z,101958.31
2024-03-06T14:32:29.822Z,101963.52
2024-03-06T14:37:35.780Z,101959.19
2024-03-06T14:42:41.430Z,101969.23
2024-03-06T14:47:47.208Z,101965.03
2024-03-06T14:52:53.026Z,101963.11
2024-03-06T14:57:58.754Z,101967.86
2024-03-06T15:03:04.820Z,101966.03
2024-03-06T15:08:10.652Z,101974.80
2024-03-06T15:13:17.698Z,101972.26
2024-03-06T15:18:23.697Z,101972.67
2024-03-06T15:23:30.005Z,101979.42
2024-03-06T15:28:35.922Z,101978.13
2024-03-06T15:33:41.828Z,101981.17
2024-03-06T15:38:47.698Z,101987.25
2024-03-06T15:43:53.656Z,101987.91
2024-03-06T15:48:59.899Z,101990.39
2024-03-06T15:54:05.893Z,101993.66
2024-03-06T15:59:11.694Z,101989.36
2024-03-06T16:04:17.539Z,101993.68
2024-03-06T16:09:23.717Z,101997.67
2024-03-06T16:14:29.401Z,102005.28
2024-03-06T16:19:42.518Z,102001.64
2024-03-06T16:24:46.263Z,102002.34
2024-03-06T16:29:52.555Z,102006.61
2024-03-06T16:34:58.514Z,102010.58
2024-03-06T16:40:04.478Z,102014.91
2024-03-06T16:45:12.833Z,102012.22
2024-03-06T16:50:20.635Z,102013.55
2024-03-06T16:55:27.314Z,102023.46
2024-03-06T17:00:33.928Z,102029.23
2024-03-06T17:05:40.013Z,102030.22
2024-03-06T17:10:46.194Z,102031.19
2024-03-06T17:15:52.433Z,102031.55
2024-03-06T17:20:58.225Z,102033.72
2024-03-06T17:26:04.571Z,102041.06
2024-03-06T17:31:10.669Z,102043.39
2024-03-06T17:36:16.344Z,102044.20
2024-03-06T17:41:22.187Z,102060.08
2024-03-06T17:46:28.021Z,102057.42
2024-03-06T17:51:36.514Z,102056.83
2024-03-06T17:56:42.906Z,102060.72
2024-03-06T18:01:48.665Z,102066.08
2024-03-06T18:06:54.215Z,102063.77
2024-03-06T18:12:00.417Z,102074.32
2024-03-06T18:17:06.398Z,102074.03
2024-03-06T18:22:12.266Z,102076.30
2024-03-06T18:27:18.051Z,102082.41
2024-03-06T18:32:23.800Z,102082.53
2024-03-06T18:37:29.570Z,102080.45
2024-03-06T18:42:35.233Z,102086.59
2024-03-06T18:47:41.986Z,102077.96
2024-03-06T18:52:47.890Z,102080.66
2024-03-06T18:57:54.351Z,102075.81
2024-03-06T19:03:00.004Z,102082.05
2024-03-06T19:08:06.396Z,102082.11
2024-03-06T19:13:12.260Z,102084.41
2024-03-06T19:18:17.973Z,102087.66
2024-03-06T19:23:24.784Z,102093.84
2024-03-06T19:28:30.449Z,102097.50
2024-03-06T19:33:36.210Z,102103.31
2024-03-06T19:38:41.934Z,102112.44
2024-03-06T19:43:47.629Z,102114.68
2024-03-06T19:48:53.201Z,102115.61
2024-03-06T19:53:58.857Z,102114.22
2024-03-06T19:59:05.567Z,102117.67
2024-03-06T20:04:11.327Z,102118.16
2024-03-06T20:09:17.174Z,102123.02
2024-03-06T20:14:23.095Z,102121.14
2024-03-06T20:19:28.837Z,102125.70
2024-03-06T20:24:35.430Z,102119.03
2024-03-06T20:29:45.068Z,102125.52
2024-03-06T20:34:50.654Z,101993.28
2024-03-06T20:39:56.240Z,102124.69
2024-03-06T20:45:02.915Z,102126.05
2024-03-06T20:50:09.257Z,102123.39
2024-03-06T20:55:15.132Z,102124.27
2024-03-06T21:00:22.650Z,102126.21
2024-03-06T21:05:37.296Z,102128.19
2024-03-06T21:10:45.861Z,102132.36
2024-03-06T21:15:51.840Z,102140.68
2024-03-06T21:20:57.611Z,102139.11
2024-03-06T21:26:04.736Z,102144.61
2024-03-06T21:31:10.611Z,102147.94
2024-03-06T21:36:16.527Z,102156.41
2024-03-06T21:41:22.405Z,102157.92
2024-03-06T21:46:28.737Z,102166.06
2024-03-06T21:51:34.912Z,102163.77
2024-03-06T21:56:41.018Z,102171.23
2024-03-06T22:01:46.826Z,102174.14
2024-03-06T22:06:52.635Z,102177.36
2024-03-06T22:12:01.164Z,102178.31
2024-03-06T22:17:08.393Z,102177.81
2024-03-06T22:22:15.775Z,102180.36
2024-03-06T22:27:21.693Z,102184.77
2024-03-06T22:32:27.407Z,102180.75
2024-03-06T22:37:33.218Z,102183.83
2024-03-06T22:42:38.972Z,102195.81
2024-03-06T22:47:44.976Z,102190.09
2024-03-06T22:52:50.706Z,102190.09
2024-03-06T22:57:58.073Z,102190.73
2024-03-06T23:03:03.708Z,102195.73
2024-03-06T23:08:09.383Z,102198.91
2024-03-06T23:13:19.285Z,102191.97
2024-03-06T23:18:26.503Z,102191.17
2024-03-06T23:23:32.926Z,102192.58
2024-03-06T23:28:38.684Z,102195.26
2024-03-06T23:33:45.368Z,102196.20
2024-03-06T23:38:51.125Z,102194.00
2024-03-06T23:43:56.803Z,102200.61
2024-03-06T23:49:04.429Z,102202.79
2024-03-06T23:54:10.184Z,102201.42
2024-03-06T23:59:15.985Z,102209.34
